Time;durP1;ratioP1;P1;durP2;ratioP2;P2;SDS_P1;SDS_P2;PMS_P1;PMS_P2;Temp;Humidity;BMP_temperature;BMP_pressure;BME280_temperature;BME280_humidity;BME280_pressure;Samples;Min_cycle;Max_cycle;Signal;HPM_P1;HPM_P2
2022/02/16 00:02:11;;;;;;;55.47;22.97;;;;;;;-0.28;84.37;95709.27;1724154;83;21058;-72
2022/02/16 00:04:38;;;;;;;76.13;32.43;;;;;;;-0.28;83.88;95714.45;1724104;83;21130;-69
2022/02/16 00:07:06;;;;;;;75.00;33.67;;;;;;;-0.40;84.05;95709.86;1724421;83;20999;-69
2022/02/16 00:09:33;;;;;;;69.53;31.57;;;;;;;-0.39;83.99;95705.54;1724396;83;21487;-69
2022/02/16 00:12:02;;;;;;;71.47;31.33;;;;;;;-0.40;84.11;95712.45;1724368;83;21073;-69
2022/02/16 00:14:30;;;;;;;24.40;11.90;;;;;;;-0.39;84.11;95716.78;1724584;83;21029;-69
2022/02/16 00:16:57;;;;;;;19.57;10.10;;;;;;;-0.37;84.17;95710.35;1724549;83;21027;-69
2022/02/16 00:19:23;;;;;;;6.47;4.17;;;;;;;-0.27;84.53;95717.52;1724373;83;21074;-69
2022/02/16 00:21:52;;;;;;;6.70;3.90;;;;;;;-0.13;84.37;95720.44;1724290;83;21003;-69
2022/02/16 00:24:19;;;;;;;65.33;29.00;;;;;;;-0.09;84.20;95718.39;1724291;83;21528;-69
2022/02/16 00:26:46;;;;;;;96.67;44.37;;;;;;;-0.02;84.59;95719.86;1724396;83;21014;-69
2022/02/16 00:29:13;;;;;;;18.00;8.50;;;;;;;-0.05;84.13;95715.00;1724437;83;21532;-69
2022/02/16 00:31:41;;;;;;;60.23;29.57;;;;;;;0.00;84.12;95712.13;1724338;83;21058;-69
2022/02/16 00:34:08;;;;;;;110.00;49.27;;;;;;;-0.07;84.29;95705.04;1724483;83;21053;-69
2022/02/16 00:36:35;;;;;;;101.57;46.47;;;;;;;-0.04;84.04;95702.52;1724213;83;21513;-69
2022/02/16 00:39:05;;;;;;;79.80;34.63;;;;;;;-0.08;83.93;95698.95;1724350;83;21063;-69
2022/02/16 00:41:31;;;;;;;88.43;39.23;;;;;;;-0.10;83.82;95703.64;1719524;83;21030;-69
2022/02/16 00:43:58;;;;;;;29.93;13.10;;;;;;;-0.10;84.10;95699.36;1719026;83;21023;-69
2022/02/16 00:46:24;;;;;;;34.20;17.10;;;;;;;-0.10;85.02;95683.80;1718915;83;21059;-69
2022/02/16 00:48:51;;;;;;;60.07;26.70;;;;;;;-0.07;85.19;95681.27;1718956;83;21027;-69
2022/02/16 00:51:18;;;;;;;45.23;21.80;;;;;;;-0.10;84.65;95685.48;1718446;83;21018;-70
2022/02/16 00:53:44;;;;;;;46.67;23.07;;;;;;;-0.06;84.84;95677.82;1718537;83;21003;-69
2022/02/16 00:56:11;;;;;;;46.13;22.77;;;;;;;0.01;84.75;95681.88;1718726;83;21086;-69
2022/02/16 00:58:38;;;;;;;19.53;10.00;;;;;;;-0.01;84.47;95680.10;1718845;83;21019;-69
2022/02/16 01:01:04;;;;;;;27.97;15.03;;;;;;;0.08;84.83;95676.86;1719161;83;21038;-69
2022/02/16 01:03:31;;;;;;;22.43;11.70;;;;;;;0.10;84.46;95674.28;1718912;83;21016;-69
2022/02/16 01:05:59;;;;;;;47.63;22.73;;;;;;;0.00;84.10;95668.03;1718868;83;21078;-69
2022/02/16 01:08:29;;;;;;;54.53;25.53;;;;;;;-0.27;84.75;95668.25;1718877;83;21016;-69
2022/02/16 01:10:55;;;;;;;40.60;19.07;;;;;;;-0.30;84.56;95679.42;1719090;83;21034;-69
2022/02/16 01:13:24;;;;;;;28.70;12.93;;;;;;;-0.31;84.36;95662.52;1718925;83;21039;-69
2022/02/16 01:15:52;;;;;;;18.93;9.27;;;;;;;-0.22;84.79;95667.52;1719206;83;21059;-69
2022/02/16 01:18:19;;;;;;;49.07;23.00;;;;;;;-0.24;84.71;95673.08;1718926;83;21068;-69
2022/02/16 01:20:48;;;;;;;63.83;28.00;;;;;;;-0.24;84.95;95673.08;1718856;83;21524;-69
2022/02/16 01:23:15;;;;;;;82.47;36.23;;;;;;;-0.29;84.37;95669.92;1718860;83;20971;-69
2022/02/16 01:25:43;;;;;;;57.90;26.23;;;;;;;-0.32;84.27;95668.13;1719243;83;21031;-69
2022/02/16 01:28:11;;;;;;;5.83;3.70;;;;;;;-0.23;84.54;95672.26;1715597;83;21023;-69
2022/02/16 01:30:40;;;;;;;8.23;3.90;;;;;;;-0.12;85.00;95676.39;1719027;83;21023;-69
2022/02/16 01:33:08;;;;;;;5.83;3.27;;;;;;;-0.03;84.81;95674.42;1714513;83;21544;-69
2022/02/16 01:35:37;;;;;;;5.67;3.40;;;;;;;-0.03;84.65;95669.23;1717675;83;21552;-69
2022/02/16 01:38:04;;;;;;;3.80;3.00;;;;;;;0.06;84.96;95664.27;1718788;83;21465;-68
2022/02/16 01:40:31;;;;;;;6.93;3.73;;;;;;;0.13;84.96;95657.52;1720682;83;21027;-69
2022/02/16 01:43:00;;;;;;;11.07;6.73;;;;;;;0.12;84.71;95649.25;1723972;83;21090;-68
2022/02/16 01:45:30;;;;;;;27.87;12.73;;;;;;;0.14;84.42;95650.17;1723000;83;21057;-69
2022/02/16 01:47:57;;;;;;;9.10;5.20;;;;;;;0.05;84.27;95643.08;1724225;83;20983;-68
2022/02/16 01:50:25;;;;;;;77.73;32.13;;;;;;;0.03;84.56;95638.27;1724327;83;21038;-69
2022/02/16 01:52:52;;;;;;;75.90;34.90;;;;;;;-0.11;84.94;95640.53;1724154;83;21091;-69
2022/02/16 01:55:19;;;;;;;15.43;7.20;;;;;;;-0.16;84.44;95638.25;1724337;83;21011;-69
2022/02/16 01:57:48;;;;;;;9.90;6.13;;;;;;;-0.15;84.66;95639.12;1724591;83;21061;-68
2022/02/16 02:00:15;;;;;;;9.20;3.90;;;;;;;-0.12;84.92;95642.68;1724339;83;20999;-69
2022/02/16 02:02:45;;;;;;;7.53;5.03;;;;;;;-0.06;85.03;95647.13;1724289;83;21014;-69
2022/02/16 02:05:13;;;;;;;46.57;23.27;;;;;;;0.01;85.24;95645.12;1722958;83;21034;-69
2022/02/16 02:07:40;;;;;;;47.43;25.13;;;;;;;-0.02;85.02;95645.94;1723962;83;21043;-69
2022/02/16 02:10:09;;;;;;;29.90;15.27;;;;;;;-0.06;84.75;95644.10;1724284;83;21106;-69
2022/02/16 02:12:47;;;;;;;26.20;13.93;;;;;;;-0.04;84.70;95641.56;1697774;83;21026;-69
2022/02/16 02:15:15;;;;;;;10.87;6.50;;;;;;;-0.02;84.70;95636.86;1724362;83;21476;-69
2022/02/16 02:17:50;;;;;;;9.87;4.17;;;;;;;-0.01;84.83;95639.89;1722799;83;21131;-69
2022/02/16 02:20:24;;;;;;;8.27;4.77;;;;;;;-0.01;85.17;95635.13;1724520;83;21001;-69
2022/02/16 02:22:52;;;;;;;20.48;10.70;;;;;;;0.06;85.38;95621.47;1723894;83;21075;-69
2022/02/16 02:25:20;;;;;;;8.43;4.47;;;;;;;0.10;85.44;95619.80;1724276;83;21066;-69
2022/02/16 02:27:49;;;;;;;8.23;3.17;;;;;;;0.14;85.53;95606.06;1724255;83;21576;-69
2022/02/16 02:30:17;;;;;;;4.43;3.10;;;;;;;0.20;85.73;95595.80;1724308;83;21014;-69
2022/02/16 02:32:47;;;;;;;6.33;3.37;;;;;;;0.17;85.20;95604.83;1724448;83;21073;-68
2022/02/16 02:35:14;;;;;;;5.93;3.77;;;;;;;0.15;85.08;95611.30;1697878;83;21063;-69
2022/02/16 02:37:42;;;;;;;49.97;24.83;;;;;;;0.16;85.05;95606.98;1724109;83;21050;-69
2022/02/16 02:40:11;;;;;;;58.80;27.83;;;;;;;0.05;84.96;95609.34;1724265;83;21034;-69
2022/02/16 02:42:40;;;;;;;54.87;26.00;;;;;;;0.04;84.81;95617.09;1724383;83;21544;-69
2022/02/16 02:45:10;;;;;;;43.70;19.93;;;;;;;0.06;85.08;95612.38;1724228;83;20975;-69
2022/02/16 02:47:38;;;;;;;6.90;3.50;;;;;;;0.05;85.12;95613.63;1724304;83;21497;-69
2022/02/16 02:50:06;;;;;;;34.90;17.77;;;;;;;0.03;84.73;95620.53;1724215;83;21035;-68
2022/02/16 02:52:39;;;;;;;38.20;19.07;;;;;;;0.02;84.84;95623.95;1724056;83;21065;-69
2022/02/16 02:55:05;;;;;;;5.90;4.17;;;;;;;-0.02;84.70;95613.52;1697000;83;20983;-69
2022/02/16 02:57:32;;;;;;;7.90;3.40;;;;;;;-0.04;84.76;95619.52;1724360;83;21512;-69
2022/02/16 02:59:59;;;;;;;4.43;3.20;;;;;;;-0.07;84.84;95610.37;1724297;83;21026;-69
2022/02/16 03:02:27;;;;;;;5.97;2.93;;;;;;;-0.02;84.99;95612.64;1724357;83;21026;-69
2022/02/16 03:04:54;;;;;;;5.40;3.00;;;;;;;-0.04;84.68;95610.44;1697739;83;21116;-69
2022/02/16 03:07:21;;;;;;;12.23;7.53;;;;;;;-0.07;84.50;95606.05;1724239;83;21039;-69
2022/02/16 03:09:47;;;;;;;7.60;3.80;;;;;;;-0.19;84.97;95605.77;1724500;83;21010;-69
2022/02/16 03:12:14;;;;;;;8.33;3.90;;;;;;;-0.25;84.74;95600.03;1724230;83;21002;-69
2022/02/16 03:14:41;;;;;;;7.30;4.43;;;;;;;-0.16;85.16;95607.56;1724499;83;20975;-68
2022/02/16 03:17:08;;;;;;;15.20;8.93;;;;;;;-0.13;85.28;95605.03;1724221;83;21074;-70
2022/02/16 03:19:35;;;;;;;8.30;5.00;;;;;;;-0.20;84.93;95605.33;1724269;83;21035;-69
2022/02/16 03:22:03;;;;;;;5.97;3.77;;;;;;;-0.17;84.90;95605.39;1724354;83;21030;-69
2022/02/16 03:24:29;;;;;;;6.53;3.10;;;;;;;-0.18;84.60;95600.16;1724257;83;21512;-69
2022/02/16 03:26:56;;;;;;;6.63;3.27;;;;;;;-0.11;85.27;95592.55;1723925;83;21038;-69
2022/02/16 03:29:25;;;;;;;9.30;3.80;;;;;;;-0.01;85.65;95589.31;1722340;83;21441;-68
2022/02/16 03:31:54;;;;;;;11.10;5.40;;;;;;;0.05;85.62;95591.19;1724104;83;21011;-69
2022/02/16 03:34:20;;;;;;;15.10;9.10;;;;;;;0.03;85.09;95601.08;1697695;83;20983;-69
2022/02/16 03:36:48;;;;;;;18.87;10.43;;;;;;;-0.01;84.59;95621.73;1724346;83;21031;-69
2022/02/16 03:39:15;;;;;;;17.63;10.43;;;;;;;-0.05;84.39;95612.16;1724335;83;21054;-69
2022/02/16 03:41:42;;;;;;;8.97;4.80;;;;;;;0.05;85.02;95608.45;1721249;83;21082;-68
2022/02/16 03:44:08;;;;;;;17.73;11.17;;;;;;;0.13;85.19;95601.73;1719009;83;21054;-69
2022/02/16 03:46:37;;;;;;;5.33;4.03;;;;;;;0.15;84.56;95600.92;1718622;83;20999;-69
2022/02/16 03:49:04;;;;;;;6.67;3.83;;;;;;;0.13;84.48;95610.38;1718998;83;21033;-69
2022/02/16 03:51:33;;;;;;;7.47;4.30;;;;;;;0.17;84.65;95610.88;1718967;83;21050;-69
2022/02/16 03:54:01;;;;;;;15.40;8.53;;;;;;;0.09;84.63;95609.85;1718905;83;21027;-69
2022/02/16 03:56:28;;;;;;;25.20;15.47;;;;;;;-0.06;84.29;95625.95;1719073;83;21114;-69
2022/02/16 03:58:54;;;;;;;37.27;19.63;;;;;;;-0.15;84.17;95626.16;1719089;83;21019;-68
2022/02/16 04:01:21;;;;;;;19.90;11.77;;;;;;;-0.13;84.51;95626.64;1719005;83;21035;-68
2022/02/16 04:03:48;;;;;;;7.40;4.87;;;;;;;-0.05;84.63;95621.62;1718759;83;21146;-68
2022/02/16 04:06:17;;;;;;;7.77;4.50;;;;;;;0.02;84.78;95615.74;1718967;83;21082;-68
2022/02/16 04:08:45;;;;;;;8.37;5.60;;;;;;;0.02;84.40;95618.77;1718766;83;21023;-69
2022/02/16 04:11:12;;;;;;;7.53;4.90;;;;;;;0.04;84.39;95598.92;1718931;83;21067;-68
2022/02/16 04:13:40;;;;;;;11.00;6.90;;;;;;;0.10;84.77;95596.45;1719171;83;21007;-69
2022/02/16 04:16:07;;;;;;;14.97;9.33;;;;;;;0.01;84.34;95602.33;1719017;83;21508;-69
2022/02/16 04:18:34;;;;;;;11.10;7.53;;;;;;;-0.06;84.06;95614.70;1718757;83;20995;-68
2022/02/16 04:21:03;;;;;;;4.23;3.20;;;;;;;-0.09;84.07;95612.91;1719280;83;21003;-68
2022/02/16 04:23:31;;;;;;;6.37;3.83;;;;;;;-0.01;84.61;95619.14;1717450;83;21520;-68
2022/02/16 04:25:59;;;;;;;6.60;3.63;;;;;;;0.09;85.10;95611.14;1718969;83;21063;-69
2022/02/16 04:28:26;;;;;;;9.37;4.53;;;;;;;0.12;84.76;95616.39;1718770;83;21034;-68
2022/02/16 04:30:53;;;;;;;5.07;3.27;;;;;;;0.15;84.64;95619.08;1718831;83;21079;-69
2022/02/16 04:33:20;;;;;;;5.20;3.10;;;;;;;0.21;84.78;95619.20;1718900;83;21083;-69
2022/02/16 04:35:47;;;;;;;8.47;5.17;;;;;;;0.31;85.16;95618.11;1718911;83;21470;-70
2022/02/16 04:38:14;;;;;;;19.10;11.53;;;;;;;0.38;85.01;95618.70;1718931;83;21066;-69
2022/02/16 04:40:41;;;;;;;22.83;13.13;;;;;;;0.35;85.04;95618.22;1718993;83;20999;-69
2022/02/16 04:43:08;;;;;;;24.63;16.57;;;;;;;0.37;84.83;95622.12;1718888;83;21461;-69
2022/02/16 04:45:35;;;;;;;33.40;17.97;;;;;;;0.40;84.80;95606.20;1718745;83;21082;-69
2022/02/16 04:48:05;;;;;;;27.23;14.73;;;;;;;0.43;84.63;95613.18;1719100;83;21006;-68
2022/02/16 04:50:33;;;;;;;12.97;6.97;;;;;;;0.47;84.60;95623.19;1718841;83;21027;-68
2022/02/16 04:52:59;;;;;;;7.27;4.40;;;;;;;0.39;84.16;95617.84;1718815;83;21489;-69
2022/02/16 04:55:28;;;;;;;7.80;4.93;;;;;;;0.39;84.50;95613.95;1717416;83;21039;-68
2022/02/16 04:57:57;;;;;;;6.53;3.80;;;;;;;0.45;84.46;95606.70;1718266;83;21107;-68
2022/02/16 05:00:24;;;;;;;8.47;5.43;;;;;;;0.46;84.26;95604.58;1719146;83;21058;-68
2022/02/16 05:02:52;;;;;;;8.00;5.27;;;;;;;0.43;84.03;95604.09;1718075;83;21465;-68
2022/02/16 05:05:19;;;;;;;11.47;5.60;;;;;;;0.45;84.18;95597.62;1719158;83;21083;-68
2022/02/16 05:07:45;;;;;;;7.33;4.60;;;;;;;0.54;84.57;95594.78;1718675;83;21023;-69
2022/02/16 05:10:12;;;;;;;7.30;4.80;;;;;;;0.62;84.80;95598.83;1718889;83;21027;-68
2022/02/16 05:12:41;;;;;;;5.03;3.50;;;;;;;0.62;84.60;95604.89;1719045;83;21003;-69
2022/02/16 05:15:09;;;;;;;37.60;16.27;;;;;;;0.71;84.84;95591.23;1719016;83;21489;-69
2022/02/16 05:17:36;;;;;;;61.80;25.73;;;;;;;0.67;84.42;95589.41;1718935;83;20991;-69
2022/02/16 05:20:05;;;;;;;75.93;31.70;;;;;;;0.65;84.53;95579.41;1690505;83;21067;-69
2022/02/16 05:22:32;;;;;;;133.67;49.47;;;;;;;0.60;84.26;95580.61;1718974;83;21496;-69
2022/02/16 05:24:59;;;;;;;83.40;34.67;;;;;;;0.68;84.66;95583.39;1718780;83;21086;-70
2022/02/16 05:27:26;;;;;;;55.73;25.37;;;;;;;0.75;84.65;95594.31;1719031;83;21027;-69
2022/02/16 05:29:53;;;;;;;54.27;24.70;;;;;;;0.72;84.57;95590.80;1719029;83;21062;-69
2022/02/16 05:32:20;;;;;;;60.73;28.00;;;;;;;0.66;84.25;95599.35;1718896;83;21046;-69
2022/02/16 05:34:46;;;;;;;24.50;11.90;;;;;;;0.64;84.39;95595.84;1718710;83;21039;-69
2022/02/16 05:37:15;;;;;;;27.47;13.23;;;;;;;0.71;84.77;95599.45;1719021;83;21031;-69
2022/02/16 05:39:42;;;;;;;18.87;10.27;;;;;;;0.79;84.78;95596.14;1718714;83;21031;-69
2022/02/16 05:42:09;;;;;;;21.63;11.33;;;;;;;0.73;83.99;95589.55;1718931;83;21050;-69
2022/02/16 05:44:37;;;;;;;24.87;13.50;;;;;;;0.74;84.12;95593.88;1718738;83;21136;-69
2022/02/16 05:47:05;;;;;;;10.47;5.90;;;;;;;0.80;84.47;95585.32;1718949;83;21019;-69
2022/02/16 05:49:31;;;;;;;10.90;7.57;;;;;;;0.78;84.29;95606.09;1718860;83;21006;-69
2022/02/16 05:51:58;;;;;;;29.07;15.40;;;;;;;0.71;84.46;95602.05;1718960;83;21051;-69
2022/02/16 05:54:25;;;;;;;59.27;27.00;;;;;;;0.69;84.26;95607.62;1718813;83;21058;-69
2022/02/16 05:56:52;;;;;;;8.40;5.60;;;;;;;0.67;84.03;95605.42;1719099;83;20995;-69
2022/02/16 05:59:19;;;;;;;6.67;5.00;;;;;;;0.67;84.32;95608.88;1690338;83;21508;-70
2022/02/16 06:01:47;;;;;;;25.63;15.13;;;;;;;0.77;84.84;95603.45;1718916;83;20967;-70
2022/02/16 06:04:16;;;;;;;30.93;17.23;;;;;;;0.83;85.09;95610.95;1718723;83;21079;-69
2022/02/16 06:06:43;;;;;;;31.27;17.83;;;;;;;0.85;84.99;95609.66;1718922;83;21003;-71
2022/02/16 06:09:10;;;;;;;36.53;19.60;;;;;;;0.81;84.61;95623.02;1718619;83;21031;-75
2022/02/16 06:11:37;;;;;;;34.70;18.03;;;;;;;0.83;84.61;95617.44;1718692;83;21700;-71
2022/02/16 06:14:07;;;;;;;16.80;10.20;;;;;;;0.87;84.62;95619.66;1717392;83;21501;-76
2022/02/16 06:16:35;;;;;;;10.30;6.93;;;;;;;0.93;84.92;95611.97;1718114;83;21015;-70
2022/02/16 06:19:02;;;;;;;13.27;9.17;;;;;;;0.94;84.86;95612.44;1718979;83;21027;-73
2022/02/16 06:21:28;;;;;;;20.60;13.60;;;;;;;1.01;85.02;95605.64;1717574;83;21070;-71
2022/02/16 06:23:56;;;;;;;19.60;11.63;;;;;;;1.09;85.19;95598.85;1718449;83;20999;-71
2022/02/16 06:26:22;;;;;;;19.27;10.20;;;;;;;1.08;84.36;95608.38;1718405;83;21710;-69
2022/02/16 06:28:49;;;;;;;18.57;10.53;;;;;;;1.03;84.02;95609.12;1718191;83;21608;-70
2022/02/16 06:31:17;;;;;;;42.63;22.73;;;;;;;1.03;83.99;95618.21;1718384;83;21031;-70
2022/02/16 06:33:44;;;;;;;32.07;17.67;;;;;;;1.01;84.29;95616.91;1719150;83;20971;-68
2022/02/16 06:36:11;;;;;;;41.00;21.13;;;;;;;1.08;84.65;95615.27;1718768;83;21556;-69
2022/02/16 06:38:38;;;;;;;16.33;8.83;;;;;;;1.08;84.56;95619.17;1718804;83;21038;-69
2022/02/16 06:41:07;;;;;;;37.17;20.00;;;;;;;1.17;84.99;95610.25;1718746;83;21038;-67
2022/02/16 06:43:34;;;;;;;24.33;14.33;;;;;;;1.14;84.67;95614.53;1718548;83;21111;-70
2022/02/16 06:46:01;;;;;;;24.00;14.77;;;;;;;1.16;84.54;95612.81;1718186;83;21070;-71
2022/02/16 06:48:29;;;;;;;24.47;14.53;;;;;;;1.06;84.02;95615.70;1717939;83;21169;-71
2022/02/16 06:50:56;;;;;;;58.80;31.87;;;;;;;0.99;83.97;95616.42;1689593;83;21446;-72
2022/02/16 06:53:23;;;;;;;28.53;17.27;;;;;;;1.04;84.51;95618.25;1718115;83;21063;-68
2022/02/16 06:55:50;;;;;;;36.97;21.53;;;;;;;1.11;84.80;95617.95;1718726;83;21572;-70
2022/02/16 06:58:19;;;;;;;37.90;22.17;;;;;;;1.15;84.89;95618.44;1718647;83;21082;-71
2022/02/16 07:00:46;;;;;;;42.63;23.90;;;;;;;1.20;84.62;95615.92;1718817;83;21015;-73
2022/02/16 07:03:13;;;;;;;40.00;23.97;;;;;;;1.19;84.30;95611.59;1690471;83;21023;-73
2022/02/16 07:05:42;;;;;;;49.40;23.63;;;;;;;1.21;84.77;95612.07;1718443;83;21034;-76
2022/02/16 07:08:11;;;;;;;52.10;29.47;;;;;;;1.30;85.09;95595.74;1718673;83;21054;-71
2022/02/16 07:10:38;;;;;;;109.97;64.87;;;;;;;1.42;84.89;95593.35;1718612;83;21039;-72
2022/02/16 07:13:04;;;;;;;89.53;51.33;;;;;;;1.55;85.06;95589.22;1718906;83;21556;-73
2022/02/16 07:15:31;;;;;;;70.93;44.50;;;;;;;1.68;84.94;95585.09;1718995;83;21003;-73
2022/02/16 07:18:00;;;;;;;64.07;38.97;;;;;;;1.73;84.41;95578.23;1718611;83;21042;-73
2022/02/16 07:20:29;;;;;;;53.20;26.20;;;;;;;1.86;84.54;95583.19;1690674;83;21011;-72
2022/02/16 07:22:56;;;;;;;58.80;28.80;;;;;;;1.89;84.13;95581.92;1719016;83;21555;-73
2022/02/16 07:25:25;;;;;;;69.80;37.10;;;;;;;1.91;83.60;95586.30;1718776;83;21047;-73
2022/02/16 07:27:52;;;;;;;152.10;66.90;;;;;;;1.90;83.46;95601.47;1718805;83;21099;-74
2022/02/16 07:30:20;;;;;;;86.23;41.17;;;;;;;1.90;83.44;95608.41;1719296;83;20975;-74
2022/02/16 07:32:47;;;;;;;112.30;54.10;;;;;;;1.92;83.68;95607.58;1718868;83;21011;-74
2022/02/16 07:35:14;;;;;;;116.00;57.27;;;;;;;2.02;84.08;95606.42;1719080;83;20979;-74
2022/02/16 07:37:42;;;;;;;83.07;44.60;;;;;;;2.11;84.12;95606.53;1719176;83;21513;-73
2022/02/16 07:40:11;;;;;;;68.67;36.30;;;;;;;2.14;83.63;95597.45;1690590;83;21018;-74
2022/02/16 07:42:37;;;;;;;49.67;29.23;;;;;;;2.15;83.32;95600.53;1721841;83;21533;-71
2022/02/16 07:45:19;;;;;;;42.53;25.17;;;;;;;2.17;83.37;95597.53;1662503;83;21007;-73
2022/02/16 07:47:47;;;;;;;45.67;26.53;;;;;;;2.20;83.08;95593.66;1724287;83;21052;-73
2022/02/16 07:50:14;;;;;;;41.23;23.87;;;;;;;2.23;83.09;95595.42;1724267;83;21078;-73
2022/02/16 07:53:01;;;;;;;46.17;25.73;;;;;;;2.21;82.69;95601.03;1723987;83;21595;-71
2022/02/16 07:55:32;;;;;;;42.10;24.57;;;;;;;2.12;82.28;95606.56;1724471;83;20996;-73
2022/02/16 07:58:02;;;;;;;35.53;21.90;;;;;;;2.08;82.22;95594.78;1724305;83;21003;-71
2022/02/16 08:00:30;;;;;;;38.33;22.30;;;;;;;2.03;82.45;95595.15;1724241;83;21090;-75
2022/02/16 08:03:11;;;;;;;50.23;25.50;;;;;;;1.99;82.37;95599.45;1724349;83;21067;-74
2022/02/16 08:05:40;;;;;;;40.57;23.73;;;;;;;1.95;82.71;95611.52;1724370;83;21039;-70
2022/02/16 08:08:09;;;;;;;42.43;23.33;;;;;;;2.00;82.93;95606.39;1724318;83;20999;-69
2022/02/16 08:10:36;;;;;;;51.07;27.07;;;;;;;2.02;83.20;95605.13;1724452;83;20988;-69
2022/02/16 08:13:03;;;;;;;41.60;25.37;;;;;;;2.06;83.34;95608.20;1724322;83;21097;-71
2022/02/16 08:15:32;;;;;;;42.13;23.10;;;;;;;2.13;83.42;95610.04;1722852;83;21551;-70
2022/02/16 08:17:59;;;;;;;37.57;22.37;;;;;;;2.12;83.29;95603.09;1724596;83;21019;-69
2022/02/16 08:20:25;;;;;;;35.37;21.87;;;;;;;2.15;83.22;95599.23;1724174;83;21551;-71
2022/02/16 08:22:57;;;;;;;38.27;22.40;;;;;;;2.26;83.77;95594.16;1706389;83;21066;-68
2022/02/16 08:25:25;;;;;;;37.30;22.00;;;;;;;2.37;83.70;95589.55;1723957;83;21082;-69
2022/02/16 08:28:03;;;;;;;34.83;19.67;;;;;;;2.53;83.99;95581.92;1723909;83;21473;-70
2022/02/16 08:30:30;;;;;;;34.57;21.17;;;;;;;2.54;83.18;95583.23;1723998;83;21122;-69
2022/02/16 08:32:57;;;;;;;34.93;21.90;;;;;;;2.54;83.22;95574.11;1724324;83;21478;-68
2022/02/16 08:35:26;;;;;;;34.40;21.17;;;;;;;2.71;83.77;95573.45;1720165;83;21058;-67
2022/02/16 08:37:53;;;;;;;38.07;23.00;;;;;;;2.78;83.16;95580.48;1724538;83;21012;-68
2022/02/16 08:40:22;;;;;;;39.33;26.97;;;;;;;2.82;82.88;95584.84;1724022;83;21528;-71
2022/02/16 08:42:49;;;;;;;44.10;26.60;;;;;;;2.91;83.23;95571.93;1721557;83;21073;-68
2022/02/16 08:45:16;;;;;;;44.83;28.33;;;;;;;2.95;82.72;95565.91;1719036;83;21027;-67
2022/02/16 08:47:43;;;;;;;48.53;27.53;;;;;;;3.09;83.07;95562.55;1719127;83;21525;-71
2022/02/16 08:50:10;;;;;;;45.77;26.93;;;;;;;3.25;83.41;95554.00;1718662;83;21057;-68
2022/02/16 08:52:37;;;;;;;46.93;27.13;;;;;;;3.48;83.72;95564.66;1719013;83;21104;-69
2022/02/16 08:55:06;;;;;;;45.27;26.90;;;;;;;3.65;83.12;95559.14;1718863;83;20983;-70
2022/02/16 08:57:33;;;;;;;48.73;24.90;;;;;;;3.64;80.51;95552.16;1718822;83;21042;-69
2022/02/16 08:59:59;;;;;;;41.37;25.57;;;;;;;3.66;80.81;95551.74;1719044;83;20991;-69
2022/02/16 09:02:25;;;;;;;36.63;21.70;;;;;;;3.70;80.22;95543.48;1718932;83;21057;-74
2022/02/16 09:04:52;;;;;;;36.53;22.27;;;;;;;3.67;79.89;95546.09;1719028;83;20984;-67
2022/02/16 09:07:30;;;;;;;40.83;25.00;;;;;;;3.64;79.73;95540.85;1718840;83;21541;-75
2022/02/16 09:10:00;;;;;;;39.50;23.40;;;;;;;3.72;80.30;95544.38;1718847;83;21070;-67
2022/02/16 09:12:27;;;;;;;38.27;22.37;;;;;;;3.82;80.43;95544.88;1718888;83;21082;-67
2022/02/16 09:14:54;;;;;;;39.57;22.50;;;;;;;3.84;79.67;95544.91;1719989;83;20963;-70
2022/02/16 09:17:23;;;;;;;35.47;21.13;;;;;;;3.83;79.39;95552.27;1719189;82;20999;-68
2022/02/16 09:19:51;;;;;;;40.97;23.40;;;;;;;3.82;79.17;95552.71;1713331;83;21528;-69
2022/02/16 09:22:19;;;;;;;40.70;23.27;;;;;;;3.76;79.08;95551.38;1717701;82;21058;-71
2022/02/16 09:24:45;;;;;;;36.73;20.57;;;;;;;3.77;79.23;95545.72;1708662;84;20986;-70
2022/02/16 09:27:13;;;;;;;41.40;23.30;;;;;;;3.78;79.20;95539.63;1713540;84;21066;-68
2022/02/16 09:29:42;;;;;;;38.87;23.67;;;;;;;3.79;79.36;95543.56;1708928;84;21113;-70
2022/02/16 09:32:09;;;;;;;38.73;23.20;;;;;;;3.87;79.62;95544.48;1708804;84;21524;-73
2022/02/16 09:34:36;;;;;;;40.27;23.90;;;;;;;4.00;79.70;95544.56;1710763;82;21010;-69
2022/02/16 09:37:04;;;;;;;38.40;25.13;;;;;;;4.06;78.95;95544.17;1723972;83;21497;-79
2022/02/16 09:39:31;;;;;;;35.47;22.70;;;;;;;4.08;78.73;95544.16;1724020;83;21031;-71
2022/02/16 09:41:58;;;;;;;37.77;22.23;;;;;;;4.12;78.86;95532.44;1723889;83;21050;-71
2022/02/16 09:45:01;;;;;;;35.40;22.23;;;;;;;4.16;78.28;95531.15;1723056;83;21034;-72
2022/02/16 09:47:30;;;;;;;39.97;21.93;;;;;;;4.19;78.34;95532.50;1723205;83;21509;-73
2022/02/16 09:49:58;;;;;;;37.30;23.30;;;;;;;4.18;78.39;95532.91;1723092;83;21074;-71
2022/02/16 09:52:26;;;;;;;39.47;23.20;;;;;;;4.23;78.37;95534.23;1723614;83;21077;-72
2022/02/16 09:54:53;;;;;;;38.30;22.33;;;;;;;4.26;78.27;95527.31;1723952;83;21536;-69
2022/02/16 09:57:20;;;;;;;41.20;24.50;;;;;;;4.30;78.12;95522.52;1724079;83;21074;-69
2022/02/16 09:59:47;;;;;;;44.23;24.93;;;;;;;4.40;78.42;95526.05;1723821;83;20971;-70
2022/02/16 10:02:16;;;;;;;36.27;21.90;;;;;;;4.49;78.22;95518.70;1724014;83;21062;-70
2022/02/16 10:04:59;;;;;;;37.70;20.33;;;;;;;4.57;78.16;95520.03;1723800;83;21066;-70
2022/02/16 10:07:34;;;;;;;34.20;20.33;;;;;;;4.61;77.75;95516.53;1723422;83;21093;-71
2022/02/16 10:10:20;;;;;;;33.57;20.03;;;;;;;4.61;76.17;95510.91;1723291;83;21102;-71
2022/02/16 10:12:50;;;;;;;33.43;19.70;;;;;;;4.69;76.54;95511.79;1723341;83;21011;-70
2022/02/16 10:15:21;;;;;;;33.73;19.70;;;;;;;4.82;76.99;95500.92;1723717;83;21074;-70
2022/02/16 10:17:48;;;;;;;32.70;20.10;;;;;;;4.93;76.32;95504.86;1723998;83;21078;-70
2022/02/16 10:20:19;;;;;;;35.23;19.40;;;;;;;4.99;75.92;95500.97;1723978;83;21010;-70
2022/02/16 10:22:49;;;;;;;36.17;24.07;;;;;;;5.03;75.23;95506.62;1724140;82;21568;-70
2022/02/16 10:25:27;;;;;;;48.30;29.97;;;;;;;5.09;75.73;95502.72;1723915;82;20959;-72
2022/02/16 10:28:11;;;;;;;46.50;30.60;;;;;;;5.12;75.04;95503.16;1716117;82;21026;-70
2022/02/16 10:30:54;;;;;;;47.30;28.20;;;;;;;5.13;75.27;95495.73;1724267;83;20998;-70
2022/02/16 10:33:43;;;;;;;48.25;29.20;;;;;;;5.09;75.23;95492.26;1724108;83;21500;-70
2022/02/16 10:36:23;;;;;;;57.30;29.80;;;;;;;5.03;75.62;95492.67;1724201;83;21027;-70
2022/02/16 10:39:03;;;;;;;55.47;29.93;;;;;;;5.10;75.58;95483.97;1724202;83;21102;-70
2022/02/16 10:41:52;;;;;;;61.67;37.40;;;;;;;5.15;75.79;95488.33;1723970;83;21042;-70
2022/02/16 10:44:31;;;;;;;50.20;27.73;;;;;;;5.20;75.90;95473.95;1724075;83;21034;-70
2022/02/16 10:47:05;;;;;;;39.27;24.57;;;;;;;5.39;76.41;95464.34;1724053;83;21026;-70
2022/02/16 10:49:35;;;;;;;58.47;38.43;;;;;;;5.49;75.77;95462.59;1723890;83;21087;-70
2022/02/16 10:52:14;;;;;;;39.67;26.77;;;;;;;5.58;75.06;95459.97;1724457;83;21082;-70
2022/02/16 10:55:00;;;;;;;42.57;24.83;;;;;;;5.54;73.17;95459.53;1722875;82;21142;-71
2022/02/16 10:57:30;;;;;;;53.73;33.60;;;;;;;5.50;73.58;95441.66;1722815;83;21066;-71
2022/02/16 10:59:58;;;;;;;42.13;24.90;;;;;;;5.52;73.37;95442.53;1724231;82;21508;-70
2022/02/16 11:02:25;;;;;;;47.93;29.10;;;;;;;5.49;73.19;95442.52;1724011;83;21015;-70
2022/02/16 11:04:54;;;;;;;54.40;32.17;;;;;;;5.49;73.33;95440.34;1695629;83;21050;-70
2022/02/16 11:07:24;;;;;;;49.33;30.67;;;;;;;5.53;73.82;95436.42;1724104;83;21006;-70
2022/02/16 11:09:58;;;;;;;47.23;31.53;;;;;;;5.57;73.39;95437.30;1724133;83;20975;-70
2022/02/16 11:12:25;;;;;;;49.10;29.37;;;;;;;5.59;73.73;95431.60;1723981;83;21018;-70
2022/02/16 11:14:53;;;;;;;39.87;25.73;;;;;;;5.60;73.84;95428.99;1723810;82;21077;-70
2022/02/16 11:17:26;;;;;;;39.17;24.77;;;;;;;5.65;74.04;95426.38;1723725;82;21572;-70
2022/02/16 11:20:17;;;;;;;38.65;22.82;;;;;;;5.71;74.12;95428.09;1724383;83;20975;-70
2022/02/16 11:22:57;;;;;;;34.97;22.07;;;;;;;5.75;74.20;95435.08;1723816;83;21003;-70
2022/02/16 11:25:34;;;;;;;24.77;15.73;;;;;;;5.76;74.12;95431.57;1723929;83;21035;-71
2022/02/16 11:28:11;;;;;;;24.37;15.97;;;;;;;5.79;74.67;95432.86;1688623;83;21042;-70
2022/02/16 11:30:48;;;;;;;13.07;10.60;;;;;;;5.89;75.21;95434.58;1724257;83;21101;-70
2022/02/16 11:33:19;;;;;;;12.40;8.70;;;;;;;6.04;77.12;95433.25;1723987;83;21473;-70
2022/02/16 11:35:54;;;;;;;8.50;6.50;;;;;;;6.18;77.67;95431.91;1724027;83;21070;-70